AVA9351 SKRG-SKBO
Flight info
| Callsign | AVA9351 |
|---|---|
| Flight time | 0h 40m |
| Altitude | 19000 |
| Route | ISVAT2B ISVAT ISVAT5W |
| Aircraft | A320/M-SDE3FGHIRWY/LB1 |
Departure
| Time | 2026-04-23 22:35 |
|---|---|
| Airport | Jose Maria Córdova International Airport (SKRG) |
Arrival
| Time | 2026-04-23 23:16 |
|---|---|
| Airport | El Dorado International Airport (SKBO) |
| Time | Latitude | Longitude | Altitude | Speed | Heading |
|---|---|---|---|---|---|
| 2026-04-23 22:16 | 6.17041 | -75.42716 | 7016 ft | 0 kts | 306° |
| 2026-04-23 22:27 | 6.17039 | -75.42712 | 7019 ft | 2 kts | 306° |
| 2026-04-23 22:28 | 6.17029 | -75.42699 | 7019 ft | 2 kts | 306° |
| 2026-04-23 22:28 | 6.17018 | -75.42686 | 7016 ft | 2 kts | 335° |
| 2026-04-23 22:28 | 6.17002 | -75.42683 | 7019 ft | 2 kts | 26° |
| 2026-04-23 22:28 | 6.16998 | -75.42683 | 7019 ft | 2 kts | 41° |
| 2026-04-23 22:29 | 6.17009 | -75.42674 | 7021 ft | 0 kts | 38° |
| 2026-04-23 22:29 | 6.17032 | -75.42655 | 7021 ft | 8 kts | 45° |
| 2026-04-23 22:30 | 6.17038 | -75.42608 | 7017 ft | 7 kts | 134° |
| 2026-04-23 22:30 | 6.17012 | -75.42583 | 7018 ft | 4 kts | 133° |
| 2026-04-23 22:30 | 6.16974 | -75.42548 | 7018 ft | 13 kts | 145° |
| 2026-04-23 22:30 | 6.16886 | -75.42496 | 7019 ft | 15 kts | 153° |
| 2026-04-23 22:31 | 6.16782 | -75.42485 | 7012 ft | 16 kts | 181° |
| 2026-04-23 22:31 | 6.16642 | -75.42484 | 6997 ft | 25 kts | 166° |
| 2026-04-23 22:31 | 6.16453 | -75.42484 | 6993 ft | 29 kts | 179° |
| 2026-04-23 22:31 | 6.16248 | -75.42481 | 6988 ft | 28 kts | 180° |
| 2026-04-23 22:32 | 6.16077 | -75.42480 | 6984 ft | 24 kts | 179° |
| 2026-04-23 22:32 | 6.15902 | -75.42478 | 6982 ft | 26 kts | 179° |
| 2026-04-23 22:32 | 6.15718 | -75.42476 | 6980 ft | 27 kts | 179° |
| 2026-04-23 22:32 | 6.15528 | -75.42477 | 6979 ft | 28 kts | 180° |
| 2026-04-23 22:33 | 6.15332 | -75.42475 | 6977 ft | 28 kts | 179° |
| 2026-04-23 22:33 | 6.15131 | -75.42474 | 6978 ft | 29 kts | 179° |
| 2026-04-23 22:33 | 6.14938 | -75.42473 | 6977 ft | 22 kts | 178° |
| 2026-04-23 22:33 | 6.14899 | -75.42414 | 6977 ft | 10 kts | 88° |
| 2026-04-23 22:34 | 6.14921 | -75.42341 | 6977 ft | 12 kts | 45° |
| 2026-04-23 22:34 | 6.14994 | -75.42304 | 6976 ft | 10 kts | 3° |
| 2026-04-23 22:34 | 6.15008 | -75.42305 | 6978 ft | 0 kts | 358° |
| 2026-04-23 22:34 | 6.15161 | -75.42305 | 6979 ft | 57 kts | 0° |
| 2026-04-23 22:35 | 6.15783 | -75.42309 | 6980 ft | 120 kts | 359° |
| 2026-04-23 22:35 | 6.16789 | -75.42313 | 7016 ft | 167 kts | 0° |
| 2026-04-23 22:35 | 6.17993 | -75.42324 | 7623 ft | 171 kts | 1° |
| 2026-04-23 22:35 | 6.19202 | -75.42330 | 8285 ft | 177 kts | 358° |
| 2026-04-23 22:36 | 6.20490 | -75.42332 | 8520 ft | 195 kts | 1° |
| 2026-04-23 22:36 | 6.21830 | -75.41901 | 8726 ft | 215 kts | 40° |
| 2026-04-23 22:36 | 6.22559 | -75.40595 | 9127 ft | 223 kts | 84° |
| 2026-04-23 22:36 | 6.22263 | -75.39075 | 9592 ft | 226 kts | 118° |
| 2026-04-23 22:37 | 6.21463 | -75.37707 | 10096 ft | 228 kts | 127° |
| 2026-04-23 22:37 | 6.20544 | -75.36394 | 10555 ft | 230 kts | 128° |
| 2026-04-23 22:37 | 6.19606 | -75.35091 | 11051 ft | 231 kts | 128° |
| 2026-04-23 22:37 | 6.18668 | -75.33769 | 11540 ft | 232 kts | 127° |
| 2026-04-23 22:38 | 6.17753 | -75.32450 | 11980 ft | 235 kts | 127° |
| 2026-04-23 22:38 | 6.16724 | -75.31138 | 12240 ft | 246 kts | 135° |
| 2026-04-23 22:38 | 6.15404 | -75.29957 | 12371 ft | 263 kts | 147° |
| 2026-04-23 22:38 | 6.13787 | -75.28974 | 12567 ft | 280 kts | 158° |
| 2026-04-23 22:39 | 6.11941 | -75.28253 | 12940 ft | 293 kts | 162° |
| 2026-04-23 22:39 | 6.09952 | -75.27527 | 13101 ft | 316 kts | 162° |
| 2026-04-23 22:39 | 6.07809 | -75.26735 | 13231 ft | 339 kts | 162° |
| 2026-04-23 22:39 | 6.05525 | -75.25885 | 13338 ft | 361 kts | 161° |
| 2026-04-23 22:40 | 6.03121 | -75.24987 | 13581 ft | 375 kts | 161° |
| 2026-04-23 22:40 | 6.00654 | -75.24066 | 14098 ft | 380 kts | 162° |
| 2026-04-23 22:40 | 5.95646 | -75.22201 | 15116 ft | 387 kts | 161° |
| 2026-04-23 22:41 | 5.93104 | -75.21261 | 15644 ft | 390 kts | 161° |
| 2026-04-23 22:41 | 5.90547 | -75.20316 | 16169 ft | 393 kts | 162° |
| 2026-04-23 22:41 | 5.87970 | -75.19365 | 16662 ft | 396 kts | 161° |
| 2026-04-23 22:41 | 5.85369 | -75.18402 | 17189 ft | 400 kts | 161° |
| 2026-04-23 22:42 | 5.82753 | -75.17430 | 17711 ft | 403 kts | 160° |
| 2026-04-23 22:42 | 5.80118 | -75.16449 | 18177 ft | 405 kts | 160° |
| 2026-04-23 22:42 | 5.77464 | -75.15464 | 18559 ft | 409 kts | 161° |
| 2026-04-23 22:42 | 5.74820 | -75.14488 | 18673 ft | 410 kts | 161° |
| 2026-04-23 22:43 | 5.72117 | -75.13487 | 18880 ft | 419 kts | 161° |
| 2026-04-23 22:43 | 5.69351 | -75.12460 | 18960 ft | 431 kts | 161° |
| 2026-04-23 22:43 | 5.66514 | -75.11362 | 18982 ft | 440 kts | 159° |
| 2026-04-23 22:43 | 5.63671 | -75.10203 | 18981 ft | 442 kts | 159° |
| 2026-04-23 22:44 | 5.60858 | -75.09020 | 18980 ft | 443 kts | 158° |
| 2026-04-23 22:44 | 5.58007 | -75.07810 | 18988 ft | 443 kts | 158° |
| 2026-04-23 22:44 | 5.55170 | -75.06609 | 18975 ft | 443 kts | 158° |
| 2026-04-23 22:44 | 5.52324 | -75.05417 | 18958 ft | 443 kts | 158° |
| 2026-04-23 22:45 | 5.49479 | -75.04238 | 18955 ft | 443 kts | 159° |
| 2026-04-23 22:45 | 5.46619 | -75.03063 | 18957 ft | 444 kts | 159° |
| 2026-04-23 22:45 | 5.43762 | -75.01896 | 18981 ft | 443 kts | 159° |
| 2026-04-23 22:45 | 5.40897 | -75.00726 | 18980 ft | 443 kts | 159° |
| 2026-04-23 22:46 | 5.38037 | -74.99552 | 18910 ft | 443 kts | 159° |
| 2026-04-23 22:46 | 5.35196 | -74.98371 | 18898 ft | 443 kts | 159° |
| 2026-04-23 22:46 | 5.32352 | -74.97171 | 18885 ft | 443 kts | 158° |
| 2026-04-23 22:46 | 5.29519 | -74.95963 | 18874 ft | 443 kts | 158° |
| 2026-04-23 22:47 | 5.26717 | -74.94761 | 18862 ft | 443 kts | 158° |
| 2026-04-23 22:47 | 5.23883 | -74.93536 | 18857 ft | 438 kts | 156° |
| 2026-04-23 22:47 | 5.21360 | -74.91979 | 18765 ft | 414 kts | 142° |
| 2026-04-23 22:47 | 5.19412 | -74.89989 | 18585 ft | 389 kts | 128° |
| 2026-04-23 22:48 | 5.17987 | -74.87742 | 18151 ft | 374 kts | 121° |
| 2026-04-23 22:48 | 5.16744 | -74.85542 | 17893 ft | 354 kts | 120° |
| 2026-04-23 22:48 | 5.15547 | -74.83421 | 17330 ft | 346 kts | 120° |
| 2026-04-23 22:48 | 5.14355 | -74.81344 | 16753 ft | 339 kts | 121° |
| 2026-04-23 22:49 | 5.13414 | -74.79209 | 16580 ft | 335 kts | 104° |
| 2026-04-23 22:49 | 5.13042 | -74.76893 | 16421 ft | 337 kts | 101° |
| 2026-04-23 22:49 | 5.12231 | -74.74711 | 16194 ft | 334 kts | 120° |
| 2026-04-23 22:49 | 5.11016 | -74.72744 | 15966 ft | 331 kts | 124° |
| 2026-04-23 22:50 | 5.09709 | -74.70856 | 15745 ft | 329 kts | 126° |
| 2026-04-23 22:50 | 5.08393 | -74.68982 | 15527 ft | 329 kts | 126° |
| 2026-04-23 22:50 | 5.07104 | -74.67089 | 15303 ft | 327 kts | 124° |
| 2026-04-23 22:50 | 5.05855 | -74.65180 | 15079 ft | 327 kts | 123° |
| 2026-04-23 22:51 | 5.04642 | -74.63263 | 14884 ft | 326 kts | 123° |
| 2026-04-23 22:51 | 5.03447 | -74.61335 | 14723 ft | 323 kts | 123° |
| 2026-04-23 22:51 | 5.02266 | -74.59411 | 14753 ft | 324 kts | 122° |
| 2026-04-23 22:51 | 5.01089 | -74.57490 | 14773 ft | 323 kts | 122° |
| 2026-04-23 22:52 | 4.99909 | -74.55564 | 14771 ft | 324 kts | 122° |
| 2026-04-23 22:52 | 4.98727 | -74.53637 | 14793 ft | 324 kts | 122° |
| 2026-04-23 22:52 | 4.97544 | -74.51714 | 14792 ft | 325 kts | 122° |
| 2026-04-23 22:52 | 4.96353 | -74.49786 | 14860 ft | 325 kts | 123° |
| 2026-04-23 22:53 | 4.95163 | -74.47864 | 14860 ft | 324 kts | 123° |
| 2026-04-23 22:53 | 4.93971 | -74.45940 | 14860 ft | 323 kts | 122° |
| 2026-04-23 22:53 | 4.92814 | -74.44068 | 14855 ft | 310 kts | 122° |
| 2026-04-23 22:53 | 4.91596 | -74.42364 | 14863 ft | 301 kts | 134° |
| 2026-04-23 22:54 | 4.90007 | -74.40973 | 14778 ft | 299 kts | 148° |
| 2026-04-23 22:54 | 4.88221 | -74.39987 | 14556 ft | 296 kts | 154° |
| 2026-04-23 22:54 | 4.86385 | -74.39046 | 14347 ft | 295 kts | 154° |
| 2026-04-23 22:54 | 4.84567 | -74.38107 | 14127 ft | 294 kts | 154° |
| 2026-04-23 22:55 | 4.82756 | -74.37168 | 13910 ft | 293 kts | 153° |
| 2026-04-23 22:55 | 4.80953 | -74.36232 | 13700 ft | 291 kts | 153° |
| 2026-04-23 22:55 | 4.79165 | -74.35303 | 13678 ft | 286 kts | 153° |
| 2026-04-23 22:55 | 4.77421 | -74.34399 | 13680 ft | 276 kts | 153° |
| 2026-04-23 22:56 | 4.75746 | -74.33471 | 13688 ft | 275 kts | 150° |
| 2026-04-23 22:56 | 4.74105 | -74.32493 | 13690 ft | 273 kts | 149° |
| 2026-04-23 22:56 | 4.72494 | -74.31509 | 13695 ft | 270 kts | 149° |
| 2026-04-23 22:56 | 4.70889 | -74.30526 | 13697 ft | 270 kts | 150° |
| 2026-04-23 22:57 | 4.69308 | -74.29563 | 13702 ft | 270 kts | 150° |
| 2026-04-23 22:57 | 4.67764 | -74.28494 | 13701 ft | 270 kts | 138° |
| 2026-04-23 22:57 | 4.66380 | -74.27217 | 13706 ft | 270 kts | 138° |
| 2026-04-23 22:57 | 4.64972 | -74.25925 | 13703 ft | 272 kts | 139° |
| 2026-04-23 22:58 | 4.63587 | -74.24652 | 13704 ft | 264 kts | 136° |
| 2026-04-23 22:58 | 4.62463 | -74.23235 | 13567 ft | 259 kts | 126° |
| 2026-04-23 22:58 | 4.61452 | -74.21770 | 13139 ft | 258 kts | 126° |
| 2026-04-23 22:58 | 4.60444 | -74.20302 | 12785 ft | 253 kts | 125° |
| 2026-04-23 22:59 | 4.59443 | -74.18841 | 12447 ft | 249 kts | 125° |
| 2026-04-23 22:59 | 4.58482 | -74.17442 | 12143 ft | 244 kts | 124° |
| 2026-04-23 22:59 | 4.57757 | -74.15953 | 11837 ft | 236 kts | 106° |
| 2026-04-23 22:59 | 4.57558 | -74.14344 | 11515 ft | 232 kts | 87° |
| 2026-04-23 23:00 | 4.57854 | -74.12773 | 11209 ft | 227 kts | 69° |
| 2026-04-23 23:00 | 4.58581 | -74.11397 | 10930 ft | 219 kts | 52° |
| 2026-04-23 23:00 | 4.59259 | -74.10645 | 10730 ft | 210 kts | 41° |
| 2026-04-23 23:00 | 4.60421 | -74.09848 | 10462 ft | 196 kts | 24° |
| 2026-04-23 23:01 | 4.62032 | -74.09305 | 10145 ft | 175 kts | 13° |
| 2026-04-23 23:01 | 4.62796 | -74.09095 | 9970 ft | 170 kts | 14° |
| 2026-04-23 23:01 | 4.63919 | -74.08788 | 9744 ft | 166 kts | 13° |
| 2026-04-23 23:01 | 4.65430 | -74.08730 | 9439 ft | 162 kts | 346° |
| 2026-04-23 23:02 | 4.66134 | -74.08960 | 9278 ft | 161 kts | 332° |
| 2026-04-23 23:02 | 4.67282 | -74.09855 | 9031 ft | 155 kts | 307° |
| 2026-04-23 23:02 | 4.67624 | -74.10480 | 9044 ft | 159 kts | 296° |
| 2026-04-23 23:02 | 4.68148 | -74.11438 | 9769 ft | 162 kts | 298° |
| 2026-04-23 23:03 | 4.68907 | -74.12919 | 10414 ft | 192 kts | 296° |
| 2026-04-23 23:03 | 4.69318 | -74.13737 | 10523 ft | 205 kts | 296° |
| 2026-04-23 23:03 | 4.69990 | -74.15076 | 10651 ft | 223 kts | 296° |
| 2026-04-23 23:03 | 4.70726 | -74.16366 | 11467 ft | 204 kts | 300° |
| 2026-04-23 23:04 | 4.71516 | -74.17523 | 12133 ft | 200 kts | 309° |
| 2026-04-23 23:04 | 4.72515 | -74.18538 | 12515 ft | 212 kts | 318° |
| 2026-04-23 23:04 | 4.73696 | -74.19486 | 12911 ft | 220 kts | 320° |
| 2026-04-23 23:04 | 4.74841 | -74.20444 | 13716 ft | 206 kts | 317° |
| 2026-04-23 23:05 | 4.75883 | -74.21415 | 14310 ft | 206 kts | 314° |
| 2026-04-23 23:05 | 4.76916 | -74.22534 | 14174 ft | 237 kts | 304° |
| 2026-04-23 23:05 | 4.77771 | -74.24012 | 13744 ft | 249 kts | 296° |
| 2026-04-23 23:05 | 4.78562 | -74.25582 | 13754 ft | 255 kts | 298° |
| 2026-04-23 23:06 | 4.79717 | -74.26888 | 13750 ft | 258 kts | 324° |
| 2026-04-23 23:06 | 4.81359 | -74.27647 | 13703 ft | 261 kts | 347° |
| 2026-04-23 23:06 | 4.83139 | -74.27790 | 13456 ft | 261 kts | 358° |
| 2026-04-23 23:06 | 4.84958 | -74.27807 | 13154 ft | 261 kts | 358° |
| 2026-04-23 23:07 | 4.86770 | -74.27798 | 12988 ft | 260 kts | 359° |
| 2026-04-23 23:07 | 4.88571 | -74.27787 | 12977 ft | 260 kts | 356° |
| 2026-04-23 23:07 | 4.90374 | -74.27991 | 12974 ft | 260 kts | 351° |
| 2026-04-23 23:07 | 4.92160 | -74.28249 | 12975 ft | 260 kts | 351° |
| 2026-04-23 23:08 | 4.93936 | -74.28508 | 12924 ft | 259 kts | 350° |
| 2026-04-23 23:08 | 4.95695 | -74.28841 | 12928 ft | 258 kts | 339° |
| 2026-04-23 23:08 | 4.97225 | -74.29751 | 12936 ft | 256 kts | 314° |
| 2026-04-23 23:08 | 4.98218 | -74.31218 | 12935 ft | 255 kts | 289° |
| 2026-04-23 23:09 | 4.98490 | -74.32958 | 12934 ft | 256 kts | 264° |
| 2026-04-23 23:09 | 4.97996 | -74.34656 | 12927 ft | 256 kts | 240° |
| 2026-04-23 23:09 | 4.96860 | -74.36026 | 12861 ft | 257 kts | 225° |
| 2026-04-23 23:09 | 4.95581 | -74.37289 | 12864 ft | 258 kts | 225° |
| 2026-04-23 23:10 | 4.94301 | -74.38545 | 12862 ft | 259 kts | 222° |
| 2026-04-23 23:10 | 4.92743 | -74.39436 | 12870 ft | 260 kts | 195° |
| 2026-04-23 23:10 | 4.90950 | -74.39519 | 12892 ft | 261 kts | 168° |
| 2026-04-23 23:10 | 4.89311 | -74.38770 | 12896 ft | 264 kts | 141° |
| 2026-04-23 23:11 | 4.88097 | -74.37393 | 12912 ft | 265 kts | 127° |
| 2026-04-23 23:11 | 4.86989 | -74.35907 | 12925 ft | 265 kts | 127° |
| 2026-04-23 23:11 | 4.85875 | -74.34425 | 12848 ft | 267 kts | 128° |
| 2026-04-23 23:11 | 4.84750 | -74.32938 | 12541 ft | 268 kts | 128° |
| 2026-04-23 23:12 | 4.83631 | -74.31459 | 12213 ft | 264 kts | 128° |
| 2026-04-23 23:12 | 4.82534 | -74.30008 | 11892 ft | 257 kts | 127° |
| 2026-04-23 23:12 | 4.81478 | -74.28612 | 11573 ft | 251 kts | 127° |
| 2026-04-23 23:12 | 4.80450 | -74.27253 | 11311 ft | 242 kts | 127° |
| 2026-04-23 23:13 | 4.79437 | -74.25913 | 10987 ft | 236 kts | 127° |
| 2026-04-23 23:13 | 4.78457 | -74.24618 | 10696 ft | 231 kts | 127° |
| 2026-04-23 23:13 | 4.77497 | -74.23348 | 10445 ft | 224 kts | 127° |
| 2026-04-23 23:13 | 4.76598 | -74.22160 | 10186 ft | 207 kts | 128° |
| 2026-04-23 23:14 | 4.75774 | -74.21071 | 9922 ft | 187 kts | 127° |
| 2026-04-23 23:14 | 4.75020 | -74.20073 | 9659 ft | 174 kts | 128° |
| 2026-04-23 23:14 | 4.74300 | -74.19121 | 9422 ft | 169 kts | 128° |
| 2026-04-23 23:14 | 4.73595 | -74.18190 | 9165 ft | 167 kts | 128° |
| 2026-04-23 23:15 | 4.72888 | -74.17256 | 8926 ft | 168 kts | 127° |
| 2026-04-23 23:15 | 4.72187 | -74.16322 | 8689 ft | 168 kts | 127° |
| 2026-04-23 23:15 | 4.71468 | -74.15383 | 8453 ft | 168 kts | 127° |
| 2026-04-23 23:15 | 4.70787 | -74.14470 | 8373 ft | 150 kts | 127° |
| 2026-04-23 23:16 | 4.70313 | -74.13850 | 8365 ft | 71 kts | 127° |
| 2026-04-23 23:16 | 4.70160 | -74.13639 | 8366 ft | 30 kts | 124° |
| 2026-04-23 23:16 | 4.70032 | -74.13475 | 8366 ft | 30 kts | 128° |
| 2026-04-23 23:16 | 4.69934 | -74.13359 | 8367 ft | 20 kts | 139° |
| 2026-04-23 23:17 | 4.69807 | -74.13309 | 8367 ft | 14 kts | 171° |
| 2026-04-23 23:17 | 4.69718 | -74.13296 | 8366 ft | 12 kts | 174° |
| 2026-04-23 23:17 | 4.69684 | -74.13337 | 8366 ft | 9 kts | 276° |
| 2026-04-23 23:17 | 4.69715 | -74.13387 | 8366 ft | 9 kts | 304° |
| 2026-04-23 23:18 | 4.69754 | -74.13443 | 8366 ft | 10 kts | 309° |